Time;durP1;ratioP1;P1;durP2;ratioP2;P2;SDS_P1;SDS_P2;PMS_P1;PMS_P2;Temp;Humidity;BMP_temperature;BMP_pressure;BME280_temperature;BME280_humidity;BME280_pressure;Samples;Min_cycle;Max_cycle;Signal;HPM_P1;HPM_P2
2022/01/10 00:01:56;;;;;;;;;;;19.00;48.20;;;;;;5092566;28;19935;-62
2022/01/10 00:04:21;;;;;;;;;;;19.00;48.10;;;;;;5091721;28;19922;-62
2022/01/10 00:06:47;;;;;;;;;;;19.00;48.20;;;;;;5092127;28;19913;-62
2022/01/10 00:09:12;;;;;;;;;;;19.00;48.20;;;;;;5091654;28;19930;-62
2022/01/10 00:11:38;;;;;;;;;;;19.00;48.10;;;;;;5093435;28;19916;-62
2022/01/10 00:14:03;;;;;;;;;;;19.00;48.10;;;;;;5089877;28;19912;-62
2022/01/10 00:16:29;;;;;;;;;;;19.00;48.80;;;;;;5093065;28;19961;-62
2022/01/10 00:18:54;;;;;;;;;;;19.00;48.20;;;;;;5084938;28;19919;-62
2022/01/10 00:21:20;;;;;;;;;;;19.00;48.10;;;;;;5090746;28;19916;-62
2022/01/10 00:23:45;;;;;;;;;;;19.00;48.10;;;;;;5091010;28;19912;-62
2022/01/10 00:26:11;;;;;;;;;;;19.00;48.20;;;;;;5079856;28;20032;-62
2022/01/10 00:28:36;;;;;;;;;;;19.00;48.10;;;;;;5090568;28;19965;-62
2022/01/10 00:31:01;;;;;;;;;;;19.00;48.20;;;;;;5092020;28;19916;-62
2022/01/10 00:33:27;;;;;;;;;;;19.00;48.00;;;;;;5092078;28;19912;-62
2022/01/10 00:35:52;;;;;;;;;;;19.00;48.20;;;;;;5091044;28;19912;-62
2022/01/10 00:38:18;;;;;;;;;;;19.00;48.20;;;;;;5088312;28;19988;-62
2022/01/10 00:40:44;;;;;;;;;;;19.00;48.20;;;;;;5091391;28;20375;-62
2022/01/10 00:43:17;;;;;;;;;;;18.90;48.10;;;;;;5089492;28;19957;-62
2022/01/10 00:45:43;;;;;;;;;;;18.90;48.00;;;;;;5091723;28;20340;-62
2022/01/10 00:48:08;;;;;;;;;;;18.90;48.00;;;;;;5088538;28;19958;-62
2022/01/10 00:50:34;;;;;;;;;;;18.90;48.10;;;;;;5091568;28;19920;-62
2022/01/10 00:53:00;;;;;;;;;;;18.90;48.00;;;;;;5091220;28;19920;-62
2022/01/10 00:55:26;;;;;;;;;;;18.90;48.70;;;;;;5089392;28;19912;-62
2022/01/10 00:57:51;;;;;;;;;;;18.90;48.00;;;;;;5090822;28;20295;-62
2022/01/10 01:00:17;;;;;;;;;;;18.90;48.10;;;;;;5091988;28;19919;-63
2022/01/10 01:02:42;;;;;;;;;;;18.90;48.00;;;;;;5091831;28;20246;-62
2022/01/10 01:05:09;;;;;;;;;;;18.90;48.20;;;;;;5091322;28;19916;-62
2022/01/10 01:07:35;;;;;;;;;;;18.90;48.20;;;;;;5091586;28;19915;-62
2022/01/10 01:10:31;;;;;;;;;;;18.90;48.10;;;;;;5090296;28;19912;-62
2022/01/10 01:12:57;;;;;;;;;;;18.90;48.00;;;;;;5090162;28;20015;-62
2022/01/10 01:15:33;;;;;;;;;;;18.90;48.10;;;;;;5092169;28;19959;-62
2022/01/10 01:25:49;;;;;;;;;;;18.80;48.70;;;;;;5088051;28;19931;-62
2022/01/10 01:28:15;;;;;;;;;;;18.80;48.00;;;;;;5090648;28;19912;-62
2022/01/10 01:30:42;;;;;;;;;;;18.80;48.10;;;;;;5090512;28;19962;-62
2022/01/10 01:33:08;;;;;;;;;;;18.80;48.10;;;;;;5084061;28;20448;-62
2022/01/10 01:35:35;;;;;;;;;;;18.80;48.00;;;;;;5089092;28;19999;-62
2022/01/10 01:38:00;;;;;;;;;;;18.80;48.10;;;;;;5080128;28;19965;-62
2022/01/10 01:40:29;;;;;;;;;;;18.80;48.10;;;;;;5090284;28;19912;-62
2022/01/10 01:42:54;;;;;;;;;;;18.80;48.10;;;;;;5090785;28;19912;-62
2022/01/10 01:45:23;;;;;;;;;;;18.80;48.10;;;;;;5089263;28;19957;-62
2022/01/10 01:47:48;;;;;;;;;;;18.80;48.10;;;;;;5087984;28;19923;-62
2022/01/10 01:50:14;;;;;;;;;;;18.80;48.00;;;;;;5088667;28;19912;-62
2022/01/10 01:52:39;;;;;;;;;;;18.80;48.20;;;;;;5086674;28;19916;-62
2022/01/10 01:55:05;;;;;;;;;;;18.80;48.00;;;;;;5089463;28;19912;-62
2022/01/10 01:57:30;;;;;;;;;;;18.80;48.80;;;;;;5090640;28;19916;-62
2022/01/10 01:59:56;;;;;;;;;;;18.80;48.10;;;;;;5090215;28;19912;-62
2022/01/10 02:02:21;;;;;;;;;;;18.80;48.10;;;;;;5089110;28;19916;-62
2022/01/10 02:04:47;;;;;;;;;;;18.80;48.10;;;;;;5089516;28;19960;-62
2022/01/10 02:07:12;;;;;;;;;;;18.80;48.10;;;;;;5090185;28;19916;-62
2022/01/10 02:09:37;;;;;;;;;;;18.80;48.00;;;;;;5090646;28;19919;-62
2022/01/10 02:12:03;;;;;;;;;;;18.80;48.00;;;;;;5090565;28;19919;-62
2022/01/10 02:14:28;;;;;;;;;;;18.80;48.10;;;;;;5090687;28;19916;-62
2022/01/10 02:16:56;;;;;;;;;;;18.80;48.00;;;;;;5090108;28;19939;-62
2022/01/10 02:19:22;;;;;;;;;;;18.80;48.10;;;;;;5091068;28;19974;-62
2022/01/10 02:21:47;;;;;;;;;;;18.80;48.00;;;;;;5088553;28;19916;-62
2022/01/10 02:24:13;;;;;;;;;;;18.80;48.00;;;;;;5089547;28;19935;-62
2022/01/10 02:26:39;;;;;;;;;;;18.80;48.10;;;;;;5091526;28;19912;-62
2022/01/10 02:29:04;;;;;;;;;;;18.80;48.00;;;;;;5091184;28;20347;-62
2022/01/10 02:31:34;;;;;;;;;;;18.90;48.00;;;;;;5094090;28;20015;-62
2022/01/10 02:33:59;;;;;;;;;;;19.00;47.70;;;;;;5094631;28;19924;-62
2022/01/10 02:36:26;;;;;;;;;;;19.20;47.40;;;;;;5088325;28;20274;-62
2022/01/10 02:38:56;;;;;;;;;;;19.40;47.00;;;;;;5079812;28;19920;-62
2022/01/10 02:41:23;;;;;;;;;;;19.60;46.70;;;;;;5094736;28;19923;-62
2022/01/10 02:43:48;;;;;;;;;;;19.80;46.40;;;;;;5086793;28;19935;-62
2022/01/10 02:46:13;;;;;;;;;;;20.00;45.90;;;;;;5093113;28;20364;-62
2022/01/10 02:48:40;;;;;;;;;;;20.10;45.60;;;;;;5083064;28;19924;-62
2022/01/10 02:51:05;;;;;;;;;;;20.20;45.40;;;;;;5084968;28;19959;-62
2022/01/10 02:53:30;;;;;;;;;;;20.20;45.20;;;;;;5079889;28;19959;-62
2022/01/10 02:55:56;;;;;;;;;;;20.30;45.20;;;;;;5081597;28;19986;-63
2022/01/10 02:58:21;;;;;;;;;;;20.30;45.10;;;;;;5087671;28;19927;-62
2022/01/10 03:00:47;;;;;;;;;;;20.40;45.00;;;;;;5093362;28;19935;-62
2022/01/10 03:03:12;;;;;;;;;;;20.40;44.90;;;;;;5093741;28;19916;-63
2022/01/10 03:05:38;;;;;;;;;;;20.40;44.90;;;;;;5090098;28;20003;-62
2022/01/10 03:08:03;;;;;;;;;;;20.40;44.80;;;;;;5076851;28;19913;-62
2022/01/10 03:10:29;;;;;;;;;;;20.40;45.00;;;;;;5092620;28;19912;-63
2022/01/10 03:12:55;;;;;;;;;;;20.30;45.00;;;;;;5091300;28;19918;-63
2022/01/10 03:15:20;;;;;;;;;;;20.30;45.10;;;;;;5093708;28;19926;-63
2022/01/10 03:17:46;;;;;;;;;;;20.20;45.10;;;;;;5094128;28;20019;-63
2022/01/10 03:20:11;;;;;;;;;;;20.20;45.20;;;;;;5093597;28;19912;-62
2022/01/10 03:22:37;;;;;;;;;;;20.20;45.30;;;;;;5093800;28;19998;-62
2022/01/10 03:25:02;;;;;;;;;;;20.20;45.40;;;;;;5092408;28;19916;-62
2022/01/10 03:27:28;;;;;;;;;;;20.20;45.40;;;;;;5093572;28;19912;-62
2022/01/10 03:29:53;;;;;;;;;;;20.20;45.40;;;;;;5088872;28;19974;-62
2022/01/10 03:32:19;;;;;;;;;;;20.20;45.40;;;;;;5093892;28;19964;-62
2022/01/10 03:34:44;;;;;;;;;;;20.10;45.40;;;;;;5093577;28;20010;-62
2022/01/10 03:37:10;;;;;;;;;;;20.20;45.50;;;;;;5085455;28;19913;-62
2022/01/10 03:39:35;;;;;;;;;;;20.20;45.50;;;;;;5086904;28;20371;-62
2022/01/10 03:42:01;;;;;;;;;;;20.20;45.40;;;;;;5093653;28;19962;-62
2022/01/10 03:44:26;;;;;;;;;;;20.20;45.50;;;;;;5090742;28;19912;-63
2022/01/10 03:46:52;;;;;;;;;;;20.20;45.40;;;;;;5091470;28;19916;-63
2022/01/10 03:49:17;;;;;;;;;;;20.20;45.40;;;;;;5090744;28;19943;-63
2022/01/10 03:51:43;;;;;;;;;;;20.20;45.40;;;;;;5092504;28;20019;-62
2022/01/10 03:54:08;;;;;;;;;;;20.10;45.40;;;;;;5091562;28;19919;-62
2022/01/10 03:56:33;;;;;;;;;;;20.20;45.40;;;;;;5093047;28;19919;-62
2022/01/10 03:58:59;;;;;;;;;;;20.10;45.40;;;;;;5092085;28;19927;-62
2022/01/10 04:01:24;;;;;;;;;;;20.10;45.40;;;;;;5092138;28;19923;-62
2022/01/10 04:03:50;;;;;;;;;;;20.10;45.40;;;;;;5090877;28;19999;-63
2022/01/10 04:06:16;;;;;;;;;;;20.10;45.40;;;;;;5093059;28;20131;-62
2022/01/10 04:08:42;;;;;;;;;;;20.10;45.40;;;;;;5091890;28;19908;-63
2022/01/10 04:11:07;;;;;;;;;;;20.10;45.40;;;;;;5093035;28;19963;-62
2022/01/10 04:13:33;;;;;;;;;;;20.10;45.50;;;;;;5090166;28;20384;-62
2022/01/10 04:15:58;;;;;;;;;;;20.10;45.40;;;;;;5092607;28;19931;-62
2022/01/10 04:18:24;;;;;;;;;;;20.10;46.10;;;;;;5091364;28;20381;-62
2022/01/10 04:20:49;;;;;;;;;;;20.00;45.60;;;;;;5091730;28;20430;-63
2022/01/10 04:23:15;;;;;;;;;;;19.90;45.80;;;;;;5085557;28;20327;-63
2022/01/10 04:25:40;;;;;;;;;;;19.80;45.90;;;;;;5093014;28;19915;-63
2022/01/10 04:28:06;;;;;;;;;;;19.80;46.10;;;;;;5092054;28;19997;-63
2022/01/10 04:30:31;;;;;;;;;;;19.80;46.10;;;;;;5091160;28;20378;-62
2022/01/10 04:32:58;;;;;;;;;;;19.80;46.10;;;;;;5092018;28;19957;-62
2022/01/10 04:35:24;;;;;;;;;;;19.80;46.00;;;;;;5091525;28;20360;-62
2022/01/10 04:37:50;;;;;;;;;;;19.90;46.00;;;;;;5091498;28;19918;-62
2022/01/10 04:40:15;;;;;;;;;;;19.90;45.90;;;;;;5080875;28;19959;-62
2022/01/10 04:42:41;;;;;;;;;;;20.00;45.80;;;;;;5072212;28;20063;-62
2022/01/10 04:45:06;;;;;;;;;;;20.10;45.70;;;;;;5090650;28;19912;-62
2022/01/10 04:47:32;;;;;;;;;;;20.10;45.60;;;;;;5087819;28;19912;-62
2022/01/10 04:52:26;;;;;;;;;;;20.20;45.50;;;;;;5089832;28;19920;-62
2022/01/10 04:54:51;;;;;;;;;;;20.20;45.40;;;;;;5091757;28;19908;-62
2022/01/10 04:57:16;;;;;;;;;;;20.20;45.40;;;;;;5089840;28;19938;-62
2022/01/10 04:59:42;;;;;;;;;;;20.20;45.40;;;;;;5092262;28;20289;-62
2022/01/10 05:02:08;;;;;;;;;;;20.20;45.50;;;;;;5091756;28;20291;-62
2022/01/10 05:04:33;;;;;;;;;;;20.10;45.40;;;;;;5092250;28;19912;-62
2022/01/10 05:06:58;;;;;;;;;;;20.10;45.50;;;;;;5091665;28;19916;-62
2022/01/10 05:09:24;;;;;;;;;;;20.10;45.50;;;;;;5090731;28;19916;-62
2022/01/10 05:11:49;;;;;;;;;;;20.10;45.50;;;;;;5092122;28;20007;-62
2022/01/10 05:14:15;;;;;;;;;;;20.10;45.50;;;;;;5091863;28;19916;-62
2022/01/10 05:16:41;;;;;;;;;;;20.10;45.50;;;;;;5090205;28;19916;-63
2022/01/10 05:19:07;;;;;;;;;;;20.10;45.50;;;;;;5090132;28;19912;-62
2022/01/10 05:21:32;;;;;;;;;;;20.10;45.50;;;;;;5072143;28;19939;-62
2022/01/10 05:23:57;;;;;;;;;;;20.10;45.50;;;;;;5079642;28;19923;-62
2022/01/10 05:26:23;;;;;;;;;;;20.10;46.20;;;;;;5088187;28;20007;-62
2022/01/10 05:28:48;;;;;;;;;;;20.10;45.60;;;;;;5091073;28;20376;-62
2022/01/10 05:31:14;;;;;;;;;;;20.20;45.50;;;;;;5086009;28;20395;-62
2022/01/10 05:33:39;;;;;;;;;;;20.20;45.50;;;;;;5090830;28;19956;-62
2022/01/10 05:36:05;;;;;;;;;;;20.20;45.50;;;;;;5083634;28;19958;-62
2022/01/10 05:38:31;;;;;;;;;;;20.20;45.50;;;;;;5085544;28;19957;-62
2022/01/10 05:40:56;;;;;;;;;;;20.20;45.40;;;;;;5089877;28;20015;-62
2022/01/10 05:43:22;;;;;;;;;;;20.20;45.40;;;;;;5090929;28;19912;-62
2022/01/10 05:45:47;;;;;;;;;;;20.20;45.40;;;;;;5090992;28;20015;-62
2022/01/10 05:48:20;;;;;;;;;;;20.20;45.30;;;;;;5090909;28;19912;-62
2022/01/10 05:50:45;;;;;;;;;;;20.20;45.30;;;;;;5095785;28;19947;-62
2022/01/10 05:53:11;;;;;;;;;;;20.30;45.30;;;;;;5088667;28;19966;-62
2022/01/10 05:55:37;;;;;;;;;;;20.20;45.30;;;;;;5090769;28;19966;-62
2022/01/10 05:58:03;;;;;;;;;;;20.20;45.30;;;;;;5090878;28;20019;-62
2022/01/10 06:00:29;;;;;;;;;;;20.30;45.30;;;;;;5090719;28;19969;-62
2022/01/10 06:02:54;;;;;;;;;;;20.20;45.30;;;;;;5091185;28;19912;-63
2022/01/10 06:05:20;;;;;;;;;;;20.30;45.40;;;;;;5091808;28;19912;-62
2022/01/10 06:07:45;;;;;;;;;;;20.30;45.40;;;;;;5092992;28;19913;-62
2022/01/10 06:10:11;;;;;;;;;;;20.30;45.40;;;;;;5086803;28;19966;-63
2022/01/10 06:12:36;;;;;;;;;;;20.30;45.40;;;;;;5090183;28;19909;-62
2022/01/10 06:15:02;;;;;;;;;;;20.30;45.30;;;;;;5091793;28;19924;-62
2022/01/10 06:17:27;;;;;;;;;;;20.30;45.30;;;;;;5094914;28;20307;-62
2022/01/10 06:19:53;;;;;;;;;;;20.30;45.30;;;;;;5084328;28;19916;-62
2022/01/10 06:22:18;;;;;;;;;;;20.30;45.30;;;;;;5078371;28;19922;-62
2022/01/10 06:24:44;;;;;;;;;;;20.30;45.40;;;;;;5089980;28;19992;-62
2022/01/10 06:27:09;;;;;;;;;;;20.30;45.40;;;;;;5094954;28;19916;-62
2022/01/10 06:29:35;;;;;;;;;;;20.30;45.40;;;;;;5093914;28;20322;-62
2022/01/10 06:32:00;;;;;;;;;;;20.30;45.40;;;;;;5093820;28;20351;-62
2022/01/10 06:34:26;;;;;;;;;;;20.30;45.40;;;;;;5090340;28;19912;-63
2022/01/10 06:36:51;;;;;;;;;;;20.30;45.30;;;;;;5091062;28;19951;-62
2022/01/10 06:39:16;;;;;;;;;;;20.30;45.40;;;;;;5092641;28;19957;-62
2022/01/10 06:41:42;;;;;;;;;;;20.30;45.40;;;;;;5094879;28;19912;-63
2022/01/10 06:44:07;;;;;;;;;;;20.30;45.40;;;;;;5086022;28;19918;-62
2022/01/10 06:46:33;;;;;;;;;;;20.30;45.40;;;;;;5094773;28;19912;-62
2022/01/10 06:48:58;;;;;;;;;;;20.30;45.40;;;;;;5094130;28;19912;-63
2022/01/10 06:51:24;;;;;;;;;;;20.30;45.40;;;;;;5092062;28;20447;-63
2022/01/10 06:53:49;;;;;;;;;;;20.30;45.30;;;;;;5075768;28;20300;-63
2022/01/10 06:56:15;;;;;;;;;;;20.30;45.30;;;;;;5074881;28;20011;-63
2022/01/10 06:58:40;;;;;;;;;;;20.30;45.30;;;;;;5094231;28;19908;-62
2022/01/10 07:01:05;;;;;;;;;;;20.30;45.40;;;;;;5094250;28;19916;-62
2022/01/10 07:03:31;;;;;;;;;;;20.30;45.40;;;;;;5092462;28;19912;-62
2022/01/10 07:05:56;;;;;;;;;;;20.30;45.40;;;;;;5088453;28;20465;-62
2022/01/10 07:08:22;;;;;;;;;;;20.30;45.40;;;;;;5093462;28;19912;-62
2022/01/10 07:10:48;;;;;;;;;;;20.30;45.40;;;;;;5089686;28;19908;-62
2022/01/10 07:13:13;;;;;;;;;;;20.30;45.50;;;;;;5094036;28;19927;-62
2022/01/10 07:15:38;;;;;;;;;;;20.30;45.40;;;;;;5093230;28;19920;-62
2022/01/10 07:18:04;;;;;;;;;;;20.30;45.40;;;;;;5092365;28;19923;-62
2022/01/10 07:20:31;;;;;;;;;;;20.30;45.40;;;;;;5126540;27;20326;-62
2022/01/10 07:22:56;;;;;;;;;;;20.30;45.40;;;;;;5091479;28;19985;-62
2022/01/10 07:25:22;;;;;;;;;;;20.30;45.40;;;;;;5093996;28;19908;-62
2022/01/10 07:27:47;;;;;;;;;;;20.30;45.40;;;;;;5092902;28;19912;-62
2022/01/10 07:30:13;;;;;;;;;;;20.30;45.50;;;;;;5092400;28;20371;-62
2022/01/10 07:32:38;;;;;;;;;;;20.30;45.50;;;;;;5091400;28;20489;-62
2022/01/10 07:35:04;;;;;;;;;;;20.30;45.40;;;;;;5074469;28;19913;-62
2022/01/10 07:37:29;;;;;;;;;;;20.30;45.40;;;;;;5086605;28;19930;-63
2022/01/10 07:39:55;;;;;;;;;;;20.30;45.40;;;;;;5081555;28;19961;-63
2022/01/10 07:42:20;;;;;;;;;;;20.30;45.40;;;;;;5093129;28;19916;-63
2022/01/10 07:44:46;;;;;;;;;;;20.30;45.50;;;;;;5089035;28;20376;-62
2022/01/10 07:47:11;;;;;;;;;;;20.20;45.50;;;;;;5088934;28;20394;-62
2022/01/10 07:49:37;;;;;;;;;;;20.20;45.70;;;;;;5093362;28;19988;-62
2022/01/10 07:52:02;;;;;;;;;;;20.20;45.70;;;;;;5087720;28;19974;-62
2022/01/10 07:54:28;;;;;;;;;;;20.20;45.50;;;;;;5079218;28;19912;-62
2022/01/10 07:56:53;;;;;;;;;;;20.20;45.50;;;;;;5118629;27;19955;-62
2022/01/10 07:59:19;;;;;;;;;;;20.30;45.70;;;;;;5078492;28;19920;-63
2022/01/10 08:01:46;;;;;;;;;;;20.20;45.50;;;;;;5118652;27;19920;-62
2022/01/10 08:04:12;;;;;;;;;;;20.30;45.60;;;;;;5090643;28;19912;-62
2022/01/10 08:06:37;;;;;;;;;;;20.30;45.40;;;;;;5089742;28;19916;-62
2022/01/10 08:09:03;;;;;;;;;;;20.40;45.50;;;;;;5091227;28;19971;-63
2022/01/10 08:11:29;;;;;;;;;;;20.50;45.40;;;;;;5091385;28;20365;-63
2022/01/10 08:13:55;;;;;;;;;;;20.70;45.00;;;;;;5088796;28;19924;-63
2022/01/10 08:16:20;;;;;;;;;;;21.00;44.80;;;;;;5092006;28;19938;-63
2022/01/10 08:18:45;;;;;;;;;;;21.20;44.40;;;;;;5091596;28;19926;-63
2022/01/10 08:21:13;;;;;;;;;;;21.40;44.10;;;;;;5091371;28;21314;-63
2022/01/10 08:23:38;;;;;;;;;;;21.50;43.90;;;;;;5091018;28;20360;-63
2022/01/10 08:26:07;;;;;;;;;;;21.70;43.80;;;;;;5125117;27;20271;-63
2022/01/10 08:28:33;;;;;;;;;;;21.70;43.50;;;;;;5090836;28;19961;-63
2022/01/10 08:30:58;;;;;;;;;;;21.80;43.40;;;;;;5091809;28;19912;-63
2022/01/10 08:33:23;;;;;;;;;;;21.90;43.30;;;;;;5095658;28;19941;-63
2022/01/10 08:35:51;;;;;;;;;;;22.00;43.10;;;;;;5093027;28;19912;-63
2022/01/10 08:38:17;;;;;;;;;;;22.10;43.10;;;;;;5091020;28;19912;-63
2022/01/10 08:40:42;;;;;;;;;;;22.10;43.10;;;;;;5091404;28;19919;-63
2022/01/10 08:43:10;;;;;;;;;;;22.10;43.00;;;;;;5091425;28;20398;-63
2022/01/10 08:45:36;;;;;;;;;;;22.20;43.00;;;;;;5090873;28;19962;-63
2022/01/10 08:48:02;;;;;;;;;;;22.20;42.90;;;;;;5105365;28;20007;-63
2022/01/10 08:50:27;;;;;;;;;;;22.20;42.80;;;;;;5091390;28;20386;-63
2022/01/10 08:52:52;;;;;;;;;;;22.20;42.80;;;;;;5095154;28;19950;-63
2022/01/10 08:55:18;;;;;;;;;;;22.30;42.80;;;;;;5087489;28;19962;-63
2022/01/10 08:57:43;;;;;;;;;;;22.30;42.70;;;;;;5091296;28;19912;-64
2022/01/10 09:00:09;;;;;;;;;;;22.30;42.70;;;;;;5088132;28;20387;-63
2022/01/10 09:02:35;;;;;;;;;;;22.30;42.70;;;;;;5090720;28;20332;-63
2022/01/10 09:05:00;;;;;;;;;;;22.30;42.60;;;;;;5094803;28;20002;-63
2022/01/10 09:07:26;;;;;;;;;;;22.30;42.40;;;;;;5090617;28;20265;-63
2022/01/10 09:09:51;;;;;;;;;;;22.40;42.50;;;;;;5090879;28;19962;-63
2022/01/10 09:12:16;;;;;;;;;;;22.40;42.40;;;;;;5090145;28;19938;-63
2022/01/10 09:14:42;;;;;;;;;;;22.40;42.40;;;;;;5091403;28;19912;-63
2022/01/10 09:17:07;;;;;;;;;;;22.40;42.30;;;;;;5115116;27;19924;-65
2022/01/10 09:19:33;;;;;;;;;;;22.40;42.20;;;;;;5096350;28;19916;-65
2022/01/10 09:21:58;;;;;;;;;;;22.50;42.20;;;;;;5090283;28;20391;-64
2022/01/10 09:24:24;;;;;;;;;;;22.50;42.10;;;;;;5121473;27;20321;-64
2022/01/10 09:26:49;;;;;;;;;;;22.60;42.20;;;;;;5090516;28;20372;-64
2022/01/10 09:29:15;;;;;;;;;;;22.60;42.20;;;;;;5089732;28;19927;-64
2022/01/10 09:31:41;;;;;;;;;;;22.60;42.20;;;;;;5090357;28;20287;-64
2022/01/10 09:34:06;;;;;;;;;;;22.60;42.10;;;;;;5089921;28;19916;-64
2022/01/10 09:36:32;;;;;;;;;;;22.60;42.10;;;;;;5081017;28;19909;-64
2022/01/10 09:38:57;;;;;;;;;;;22.60;42.00;;;;;;5089428;28;20291;-64
2022/01/10 09:41:23;;;;;;;;;;;22.60;42.10;;;;;;5094443;28;20392;-64
2022/01/10 09:43:50;;;;;;;;;;;22.60;42.20;;;;;;5093799;28;19966;-64
2022/01/10 09:46:15;;;;;;;;;;;22.60;42.10;;;;;;5127720;27;20441;-64
2022/01/10 09:48:41;;;;;;;;;;;22.60;42.10;;;;;;5094095;28;19916;-64
2022/01/10 09:51:06;;;;;;;;;;;22.60;42.00;;;;;;5092807;28;20514;-64
2022/01/10 09:53:32;;;;;;;;;;;22.60;42.20;;;;;;5093094;28;19935;-64
2022/01/10 09:55:57;;;;;;;;;;;22.60;42.00;;;;;;5094080;28;19989;-65
2022/01/10 09:58:23;;;;;;;;;;;22.60;41.90;;;;;;5093708;28;19955;-65
2022/01/10 10:00:48;;;;;;;;;;;22.60;42.00;;;;;;5091756;28;19920;-64
2022/01/10 10:03:14;;;;;;;;;;;22.60;42.00;;;;;;5092152;28;19916;-64
2022/01/10 10:05:41;;;;;;;;;;;22.60;42.00;;;;;;5094021;28;19916;-64
2022/01/10 10:08:07;;;;;;;;;;;22.60;41.80;;;;;;5092067;28;19908;-64
2022/01/10 10:10:32;;;;;;;;;;;22.60;41.80;;;;;;5130004;27;19914;-64
2022/01/10 10:12:58;;;;;;;;;;;22.70;41.80;;;;;;5102821;28;19931;-64
2022/01/10 10:15:28;;;;;;;;;;;22.70;41.80;;;;;;5093288;28;19924;-64
2022/01/10 10:17:54;;;;;;;;;;;22.70;41.80;;;;;;5101625;28;19927;-64
2022/01/10 10:20:23;;;;;;;;;;;22.70;41.80;;;;;;5091042;28;19916;-64
2022/01/10 10:22:50;;;;;;;;;;;22.70;41.90;;;;;;5092362;28;19920;-64
2022/01/10 10:25:15;;;;;;;;;;;22.70;41.70;;;;;;5094060;28;19912;-64
2022/01/10 10:27:42;;;;;;;;;;;22.70;41.90;;;;;;5091337;28;20395;-64
2022/01/10 10:30:11;;;;;;;;;;;22.70;41.80;;;;;;5094006;28;19966;-64
2022/01/10 10:32:37;;;;;;;;;;;22.80;41.60;;;;;;5109280;28;19912;-64
2022/01/10 10:35:06;;;;;;;;;;;22.80;41.60;;;;;;5091972;28;20426;-64
2022/01/10 10:37:34;;;;;;;;;;;22.80;41.50;;;;;;5090041;28;20081;-64
2022/01/10 10:40:02;;;;;;;;;;;22.80;41.50;;;;;;5108218;28;20011;-64
2022/01/10 10:42:29;;;;;;;;;;;22.90;41.40;;;;;;5092186;28;19922;-64
2022/01/10 10:44:55;;;;;;;;;;;22.80;41.30;;;;;;5126765;27;19912;-64
2022/01/10 10:47:22;;;;;;;;;;;22.80;41.40;;;;;;5126283;27;19951;-64
2022/01/10 10:49:51;;;;;;;;;;;22.80;41.30;;;;;;5126195;27;19915;-64
2022/01/10 10:52:16;;;;;;;;;;;22.80;41.50;;;;;;5092756;28;20002;-64
2022/01/10 10:54:42;;;;;;;;;;;22.80;41.50;;;;;;5125882;27;20002;-65
2022/01/10 10:57:08;;;;;;;;;;;22.80;41.50;;;;;;5090803;28;19912;-64
2022/01/10 10:59:36;;;;;;;;;;;22.90;41.70;;;;;;5088850;28;22224;-64
2022/01/10 11:02:02;;;;;;;;;;;22.90;41.50;;;;;;5121704;27;20376;-64
2022/01/10 11:04:29;;;;;;;;;;;22.90;41.70;;;;;;5091660;28;19924;-63
2022/01/10 11:06:55;;;;;;;;;;;22.90;41.70;;;;;;5093169;28;20007;-64
2022/01/10 11:09:20;;;;;;;;;;;22.90;41.80;;;;;;5091672;28;20003;-64
2022/01/10 11:11:46;;;;;;;;;;;22.90;41.70;;;;;;5125967;27;19938;-63
2022/01/10 11:14:14;;;;;;;;;;;22.90;41.80;;;;;;5095147;28;19919;-63
2022/01/10 11:16:40;;;;;;;;;;;23.00;41.70;;;;;;5125497;27;19919;-63
2022/01/10 11:19:15;;;;;;;;;;;22.90;41.60;;;;;;5091532;28;19920;-64
2022/01/10 11:21:40;;;;;;;;;;;22.90;41.60;;;;;;5092125;28;20015;-64
2022/01/10 11:24:06;;;;;;;;;;;23.00;41.60;;;;;;5091191;28;20015;-64
2022/01/10 11:26:38;;;;;;;;;;;23.00;41.50;;;;;;5091870;28;19955;-64
2022/01/10 11:29:03;;;;;;;;;;;23.00;41.60;;;;;;5089539;28;19939;-64
2022/01/10 11:31:29;;;;;;;;;;;23.00;41.70;;;;;;5091462;28;20364;-64
2022/01/10 11:33:55;;;;;;;;;;;23.00;41.70;;;;;;5089817;28;20308;-64
2022/01/10 11:36:21;;;;;;;;;;;23.00;41.60;;;;;;5091291;28;19912;-64
2022/01/10 11:38:49;;;;;;;;;;;23.00;41.60;;;;;;5089372;28;19941;-64
2022/01/10 11:41:15;;;;;;;;;;;23.00;41.50;;;;;;5091079;28;20321;-64
2022/01/10 11:43:42;;;;;;;;;;;23.00;41.60;;;;;;5090145;28;19965;-64
2022/01/10 11:46:11;;;;;;;;;;;23.00;41.50;;;;;;5092530;28;20435;-64
2022/01/10 11:48:40;;;;;;;;;;;23.10;41.60;;;;;;5123198;27;19916;-64
2022/01/10 11:51:10;;;;;;;;;;;23.00;41.50;;;;;;5088561;28;19951;-64
2022/01/10 11:53:36;;;;;;;;;;;23.00;41.50;;;;;;5088934;28;19985;-64
2022/01/10 11:56:01;;;;;;;;;;;23.00;41.40;;;;;;5090228;28;20399;-64
2022/01/10 11:58:27;;;;;;;;;;;23.10;41.60;;;;;;5090972;28;19912;-64
2022/01/10 12:01:04;;;;;;;;;;;23.00;41.70;;;;;;5085953;28;19974;-64
2022/01/10 12:03:30;;;;;;;;;;;23.10;41.60;;;;;;5087066;28;19916;-64
2022/01/10 12:05:56;;;;;;;;;;;23.10;41.60;;;;;;5091550;28;19964;-63
2022/01/10 12:08:21;;;;;;;;;;;23.10;41.60;;;;;;5089420;28;20011;-64
2022/01/10 12:10:47;;;;;;;;;;;23.10;41.60;;;;;;5089714;28;19916;-64
2022/01/10 12:13:14;;;;;;;;;;;23.10;41.60;;;;;;5090488;28;19912;-64
2022/01/10 12:15:39;;;;;;;;;;;23.10;41.70;;;;;;5091437;28;19916;-63
2022/01/10 12:18:05;;;;;;;;;;;23.10;41.50;;;;;;5123970;27;20073;-63
2022/01/10 12:20:31;;;;;;;;;;;23.10;41.60;;;;;;5091946;28;20409;-64
2022/01/10 12:22:56;;;;;;;;;;;23.20;41.40;;;;;;5090807;28;19923;-63
2022/01/10 12:25:22;;;;;;;;;;;23.20;41.40;;;;;;5091668;28;19946;-63
2022/01/10 12:27:48;;;;;;;;;;;23.20;41.50;;;;;;5119782;27;20272;-63
2022/01/10 12:30:14;;;;;;;;;;;23.20;41.30;;;;;;5124259;27;19918;-63
2022/01/10 12:32:40;;;;;;;;;;;23.10;41.30;;;;;;5091755;28;20006;-63
2022/01/10 12:35:05;;;;;;;;;;;23.20;41.30;;;;;;5091651;28;20290;-63
2022/01/10 12:37:31;;;;;;;;;;;23.10;41.30;;;;;;5090792;28;19990;-63
2022/01/10 12:39:56;;;;;;;;;;;23.10;41.20;;;;;;5091220;28;19930;-63
2022/01/10 12:42:26;;;;;;;;;;;23.10;41.20;;;;;;5091421;28;19912;-63
2022/01/10 12:44:51;;;;;;;;;;;23.20;41.20;;;;;;5124527;27;20387;-64
2022/01/10 12:47:17;;;;;;;;;;;23.20;41.30;;;;;;5124213;27;19995;-64
2022/01/10 12:49:44;;;;;;;;;;;23.20;41.20;;;;;;5091281;28;19908;-63
2022/01/10 12:52:10;;;;;;;;;;;23.20;41.30;;;;;;5091236;28;19958;-63
2022/01/10 12:54:36;;;;;;;;;;;23.20;41.20;;;;;;5121079;27;20376;-64
2022/01/10 12:57:03;;;;;;;;;;;23.20;41.20;;;;;;5091220;28;19912;-63
2022/01/10 12:59:29;;;;;;;;;;;23.20;41.20;;;;;;5090957;28;19916;-64
2022/01/10 13:01:57;;;;;;;;;;;23.20;41.20;;;;;;5113279;27;20265;-64
2022/01/10 13:04:23;;;;;;;;;;;23.20;41.20;;;;;;5087775;28;19966;-64
2022/01/10 13:06:49;;;;;;;;;;;23.20;41.10;;;;;;5122114;27;19912;-63
2022/01/10 13:09:15;;;;;;;;;;;23.20;41.00;;;;;;5089034;28;20287;-64
2022/01/10 13:11:46;;;;;;;;;;;23.20;41.00;;;;;;5126241;27;19908;-63
2022/01/10 13:14:12;;;;;;;;;;;23.30;41.20;;;;;;5093184;28;19912;-63
2022/01/10 13:16:37;;;;;;;;;;;23.30;41.10;;;;;;5124123;27;19916;-63
2022/01/10 13:19:07;;;;;;;;;;;23.30;41.00;;;;;;5122664;27;19937;-63
2022/01/10 13:21:34;;;;;;;;;;;23.30;41.00;;;;;;5089566;28;19916;-63
2022/01/10 13:24:10;;;;;;;;;;;23.30;40.90;;;;;;5090169;28;19916;-63
2022/01/10 13:26:51;;;;;;;;;;;23.30;40.90;;;;;;5106644;28;19931;-64
2022/01/10 13:29:35;;;;;;;;;;;23.30;40.90;;;;;;5091270;28;20031;-63
2022/01/10 13:32:19;;;;;;;;;;;23.30;40.90;;;;;;5090734;28;19937;-63
2022/01/10 13:34:45;;;;;;;;;;;23.30;40.90;;;;;;5089644;28;19916;-64
2022/01/10 13:37:11;;;;;;;;;;;23.30;40.90;;;;;;5089898;28;20010;-64
2022/01/10 13:39:36;;;;;;;;;;;23.30;40.90;;;;;;5086740;28;19959;-64
2022/01/10 13:42:06;;;;;;;;;;;23.30;40.80;;;;;;5105722;28;19920;-63
2022/01/10 13:44:31;;;;;;;;;;;23.30;40.90;;;;;;5090720;28;19940;-63
2022/01/10 13:47:01;;;;;;;;;;;23.40;40.80;;;;;;5123759;27;19954;-63
2022/01/10 13:49:27;;;;;;;;;;;23.40;40.80;;;;;;5115132;27;19912;-63
2022/01/10 13:52:08;;;;;;;;;;;23.40;40.70;;;;;;5080970;28;19915;-63
2022/01/10 13:54:34;;;;;;;;;;;23.40;40.60;;;;;;5087257;28;19915;-63
2022/01/10 13:57:15;;;;;;;;;;;23.40;40.70;;;;;;5090486;28;20338;-63
2022/01/10 13:59:40;;;;;;;;;;;23.40;40.70;;;;;;5090135;28;19912;-63
2022/01/10 14:02:06;;;;;;;;;;;23.40;40.70;;;;;;5090465;28;19912;-63
2022/01/10 14:04:34;;;;;;;;;;;23.40;40.80;;;;;;5090276;28;19908;-64
2022/01/10 14:07:00;;;;;;;;;;;23.40;40.70;;;;;;5093466;28;19916;-64
2022/01/10 14:09:28;;;;;;;;;;;23.40;40.80;;;;;;5089437;28;19939;-64
2022/01/10 14:11:54;;;;;;;;;;;23.40;40.80;;;;;;5090575;28;19962;-64
2022/01/10 14:14:19;;;;;;;;;;;23.40;40.50;;;;;;5122586;27;19971;-64
2022/01/10 14:16:49;;;;;;;;;;;23.40;40.40;;;;;;5090442;28;19916;-63
2022/01/10 14:19:15;;;;;;;;;;;23.40;40.50;;;;;;5090211;28;19930;-63
2022/01/10 14:21:40;;;;;;;;;;;23.40;40.50;;;;;;5123451;27;19920;-63